PWSweather.com
Personal Weather Stations
Station Observations
WATERF01
WaterfordIE

WaterfordIE

Lat: 52.2412507, Lon: -7.1414691

Elevation: 65

Station Type: Davis Vantage Vue

www.waterfordweather.com

High Low Average
Temperature 53.6°F12.0°C 42.7°F5.9°C 46.8°F8.2°C
Dew Point 52.8°F11.6°C 37.8°F3.2°C 43.6°F6.4°C
Winds 20.7 mph 33.3 kmh 3.5 mph 5.6 kmh 9.0 mph WSW14.5 kmh WSW
Wind Gusts 41.4 mph66.6 kmh 5.8 mph9.3 kmh 16.0 mph25.7 kmh
Humidity 99% 71% 89%
Pressure 29.55 in1000.7 mb 29.35 in993.9 mb -
Precipitation 0.20 in5.1 mm - -
Hour Temp Dew Point Humidity Winds Wind Gusts Pressure Precip Precip Rate Daily Precip Total
12:00 AM 52.3°F11.3°C 51.2°F10.7°C 96% 15.0 mph E24.1 kmh E 26.5 mph42.6 kmh 29.53 in1000.0 mb - 0.00 in0.0 mm 0.00 in0.0 mm
12:10 AM 52.4°F11.3°C 51.0°F10.6°C 95% 18.4 mph WNW29.6 kmh WNW 28.8 mph46.3 kmh 29.52 in999.7 mb - 0.00 in0.0 mm 0.00 in0.0 mm
12:20 AM 52.4°F11.3°C 51.0°F10.6°C 95% 16.1 mph W25.9 kmh W 28.8 mph46.3 kmh 29.51 in999.3 mb - 0.00 in0.0 mm 0.00 in0.0 mm
12:30 AM 52.2°F11.2°C 51.4°F10.8°C 97% 16.1 mph SSW25.9 kmh SSW 27.6 mph44.4 kmh 29.50 in999.0 mb - 0.00 in0.0 mm 0.00 in0.0 mm
12:40 AM 52.2°F11.2°C 51.1°F10.6°C 96% 15.0 mph WNW24.1 kmh WNW 25.3 mph40.7 kmh 29.48 in998.3 mb - 0.00 in0.0 mm 0.00 in0.0 mm
12:50 AM 52.3°F11.3°C 50.9°F10.5°C 95% 13.8 mph W22.2 kmh W 27.6 mph44.4 kmh 29.47 in998.0 mb - 0.00 in0.0 mm 0.00 in0.0 mm
01:00 AM 52.4°F11.3°C 51.3°F10.7°C 96% 13.8 mph S22.2 kmh S 29.9 mph48.1 kmh 29.45 in997.3 mb - 0.00 in0.0 mm 0.00 in0.0 mm
01:10 AM 52.6°F11.4°C 51.5°F10.8°C 96% 17.3 mph SW27.8 kmh SW 27.6 mph44.4 kmh 29.45 in997.3 mb - 0.00 in0.0 mm 0.00 in0.0 mm
01:20 AM 52.7°F11.5°C 51.6°F10.9°C 96% 15.0 mph WSW24.1 kmh WSW 26.5 mph42.6 kmh 29.44 in997.0 mb - 0.00 in0.0 mm 0.00 in0.0 mm
01:30 AM 52.8°F11.6°C 51.7°F10.9°C 96% 17.3 mph S27.8 kmh S 29.9 mph48.1 kmh 29.42 in996.3 mb - 0.00 in0.0 mm 0.00 in0.0 mm
01:40 AM 52.9°F11.6°C 51.8°F11.0°C 96% 17.3 mph W27.8 kmh W 25.3 mph40.7 kmh 29.41 in995.9 mb - 0.00 in0.0 mm 0.00 in0.0 mm
01:50 AM 53.1°F11.7°C 52.0°F11.1°C 96% 18.4 mph SW29.6 kmh SW 32.2 mph51.8 kmh 29.40 in995.6 mb - 0.00 in0.0 mm 0.00 in0.0 mm
02:00 AM 53.1°F11.7°C 52.3°F11.3°C 97% 20.7 mph SW33.3 kmh SW 34.5 mph55.5 kmh 29.39 in995.3 mb - 0.00 in0.0 mm 0.00 in0.0 mm
02:10 AM 53.2°F11.8°C 52.1°F11.2°C 96% 17.3 mph W27.8 kmh W 29.9 mph48.1 kmh 29.38 in994.9 mb - 0.00 in0.0 mm 0.00 in0.0 mm
02:20 AM 53.5°F11.9°C 52.1°F11.2°C 95% 17.3 mph WSW27.8 kmh WSW 33.4 mph53.8 kmh 29.36 in994.2 mb - 0.00 in0.0 mm 0.00 in0.0 mm
02:30 AM 53.6°F12.0°C 52.5°F11.4°C 96% 19.6 mph SSW31.5 kmh SSW 41.4 mph66.6 kmh 29.36 in994.2 mb - 0.00 in0.0 mm 0.00 in0.0 mm
02:40 AM 53.6°F12.0°C 52.8°F11.6°C 97% 20.7 mph SW33.3 kmh SW 33.4 mph53.8 kmh 29.35 in993.9 mb - 0.00 in0.0 mm 0.00 in0.0 mm
02:50 AM 52.9°F11.6°C 52.4°F11.3°C 98% 17.3 mph W27.8 kmh W 28.8 mph46.3 kmh 29.36 in994.2 mb - 0.00 in0.0 mm 0.00 in0.0 mm
03:00 AM 51.6°F10.9°C 49.6°F9.8°C 93% 16.1 mph W25.9 kmh W 21.9 mph35.2 kmh 29.38 in994.9 mb - 0.00 in0.0 mm 0.00 in0.0 mm
03:10 AM 50.7°F10.4°C 48.2°F9.0°C 91% 12.7 mph W20.4 kmh W 23.0 mph37.0 kmh 29.39 in995.3 mb - 0.00 in0.0 mm 0.00 in0.0 mm
03:20 AM 49.9°F9.9°C 48.2°F9.0°C 94% 11.5 mph W18.5 kmh W 18.4 mph29.6 kmh 29.40 in995.6 mb - 0.01 in0.3 mm 0.01 in0.3 mm
03:30 AM 49.6°F9.8°C 49.0°F9.4°C 98% 8.1 mph W13.0 kmh W 16.1 mph25.9 kmh 29.40 in995.6 mb - 0.02 in0.5 mm 0.03 in0.8 mm
03:40 AM 49.2°F9.6°C 48.9°F9.4°C 99% 8.1 mph W13.0 kmh W 16.1 mph25.9 kmh 29.41 in995.9 mb - 0.02 in0.5 mm 0.05 in1.3 mm
03:50 AM 48.2°F9.0°C 47.4°F8.6°C 97% 13.8 mph W22.2 kmh W 19.6 mph31.5 kmh 29.41 in995.9 mb - 0.01 in0.3 mm 0.05 in1.3 mm
04:00 AM 47.1°F8.4°C 46.0°F7.8°C 96% 11.5 mph W18.5 kmh W 20.7 mph33.3 kmh 29.41 in995.9 mb - 0.01 in0.3 mm 0.06 in1.5 mm
04:10 AM 46.9°F8.3°C 46.4°F8.0°C 98% 10.4 mph WNW16.7 kmh WNW 16.1 mph25.9 kmh 29.42 in996.3 mb - 0.01 in0.3 mm 0.07 in1.8 mm
04:20 AM 46.3°F7.9°C 46.1°F7.8°C 99% 10.4 mph W16.7 kmh W 21.9 mph35.2 kmh 29.42 in996.3 mb - 0.02 in0.5 mm 0.09 in2.3 mm
04:30 AM 45.7°F7.6°C 45.5°F7.5°C 99% 9.2 mph WSW14.8 kmh WSW 19.6 mph31.5 kmh 29.43 in996.6 mb - 0.01 in0.3 mm 0.10 in2.5 mm
04:40 AM 44.9°F7.2°C 44.1°F6.7°C 97% 10.4 mph W16.7 kmh W 16.1 mph25.9 kmh 29.43 in996.6 mb - 0.00 in0.0 mm 0.10 in2.5 mm
04:50 AM 44.5°F6.9°C 43.7°F6.5°C 97% 9.2 mph W14.8 kmh W 13.8 mph22.2 kmh 29.42 in996.3 mb - 0.00 in0.0 mm 0.10 in2.5 mm
05:00 AM 44.3°F6.8°C 43.0°F6.1°C 95% 12.7 mph W20.4 kmh W 19.6 mph31.5 kmh 29.43 in996.6 mb - 0.00 in0.0 mm 0.10 in2.5 mm
05:10 AM 44.3°F6.8°C 43.0°F6.1°C 95% 9.2 mph W14.8 kmh W 19.6 mph31.5 kmh 29.44 in997.0 mb - 0.00 in0.0 mm 0.10 in2.5 mm
05:20 AM 44.4°F6.9°C 43.3°F6.3°C 96% 10.4 mph WNW16.7 kmh WNW 18.4 mph29.6 kmh 29.43 in996.6 mb - 0.00 in0.0 mm 0.10 in2.5 mm
05:30 AM 44.4°F6.9°C 43.6°F6.4°C 97% 9.2 mph WNW14.8 kmh WNW 19.6 mph31.5 kmh 29.41 in995.9 mb - 0.02 in0.5 mm 0.12 in3.0 mm
05:40 AM 44.4°F6.9°C 43.9°F6.6°C 98% 8.1 mph W13.0 kmh W 15.0 mph24.1 kmh 29.40 in995.6 mb - 0.01 in0.3 mm 0.13 in3.3 mm
05:50 AM 44.3°F6.8°C 43.5°F6.4°C 97% 9.2 mph W14.8 kmh W 19.6 mph31.5 kmh 29.41 in995.9 mb - 0.00 in0.0 mm 0.13 in3.3 mm
06:00 AM 44.2°F6.8°C 43.2°F6.2°C 96% 9.2 mph WSW14.8 kmh WSW 11.5 mph18.5 kmh 29.41 in995.9 mb - 0.00 in0.0 mm 0.13 in3.3 mm
06:10 AM 44.1°F6.7°C 42.8°F6.0°C 95% 9.2 mph WSW14.8 kmh WSW 16.1 mph25.9 kmh 29.41 in995.9 mb - 0.00 in0.0 mm 0.13 in3.3 mm
06:20 AM 44.0°F6.7°C 42.6°F5.9°C 95% 10.4 mph WSW16.7 kmh WSW 13.8 mph22.2 kmh 29.41 in995.9 mb - 0.00 in0.0 mm 0.13 in3.3 mm
06:30 AM 43.9°F6.6°C 42.3°F5.7°C 94% 8.1 mph W13.0 kmh W 16.1 mph25.9 kmh 29.41 in995.9 mb - 0.00 in0.0 mm 0.13 in3.3 mm
06:40 AM 44.1°F6.7°C 42.4°F5.8°C 94% 9.2 mph WSW14.8 kmh WSW 16.1 mph25.9 kmh 29.42 in996.3 mb - 0.00 in0.0 mm 0.13 in3.3 mm
06:50 AM 44.3°F6.8°C 42.7°F5.9°C 94% 8.1 mph WSW13.0 kmh WSW 16.1 mph25.9 kmh 29.42 in996.3 mb - 0.00 in0.0 mm 0.13 in3.3 mm
07:00 AM 45.1°F7.3°C 43.2°F6.2°C 93% 10.4 mph W16.7 kmh W 16.1 mph25.9 kmh 29.42 in996.3 mb - 0.00 in0.0 mm 0.13 in3.3 mm
07:10 AM 45.3°F7.4°C 43.1°F6.2°C 92% 8.1 mph W13.0 kmh W 13.8 mph22.2 kmh 29.41 in995.9 mb - 0.00 in0.0 mm 0.13 in3.3 mm
07:20 AM 45.5°F7.5°C 43.3°F6.3°C 92% 8.1 mph W13.0 kmh W 15.0 mph24.1 kmh 29.41 in995.9 mb - 0.00 in0.0 mm 0.13 in3.3 mm
07:30 AM 45.7°F7.6°C 43.8°F6.6°C 93% 5.8 mph W9.3 kmh W 11.5 mph18.5 kmh 29.42 in996.3 mb - 0.00 in0.0 mm 0.13 in3.3 mm
07:40 AM 45.8°F7.7°C 43.9°F6.6°C 93% 5.8 mph W9.3 kmh W 15.0 mph24.1 kmh 29.43 in996.6 mb - 0.00 in0.0 mm 0.13 in3.3 mm
07:50 AM 46.1°F7.8°C 43.9°F6.6°C 92% 9.2 mph WSW14.8 kmh WSW 15.0 mph24.1 kmh 29.42 in996.3 mb - 0.00 in0.0 mm 0.13 in3.3 mm
08:00 AM 46.3°F7.9°C 44.1°F6.7°C 92% 8.1 mph WNW13.0 kmh WNW 13.8 mph22.2 kmh 29.42 in996.3 mb - 0.00 in0.0 mm 0.13 in3.3 mm
08:10 AM 46.4°F8.0°C 43.9°F6.6°C 91% 6.9 mph W11.1 kmh W 13.8 mph22.2 kmh 29.42 in996.3 mb - 0.00 in0.0 mm 0.13 in3.3 mm
08:20 AM 46.7°F8.2°C 43.6°F6.4°C 89% 9.2 mph W14.8 kmh W 12.7 mph20.4 kmh 29.43 in996.6 mb - 0.00 in0.0 mm 0.13 in3.3 mm
08:30 AM 46.7°F8.2°C 42.8°F6.0°C 86% 10.4 mph W16.7 kmh W 16.1 mph25.9 kmh 29.42 in996.3 mb - 0.00 in0.0 mm 0.13 in3.3 mm
08:40 AM 46.5°F8.1°C 42.5°F5.8°C 86% 10.4 mph WSW16.7 kmh WSW 16.1 mph25.9 kmh 29.43 in996.6 mb - 0.00 in0.0 mm 0.13 in3.3 mm
08:50 AM 46.5°F8.1°C 42.5°F5.8°C 86% 10.4 mph W16.7 kmh W 16.1 mph25.9 kmh 29.43 in996.6 mb - 0.00 in0.0 mm 0.13 in3.3 mm
09:00 AM 46.5°F8.1°C 42.5°F5.8°C 86% 9.2 mph W14.8 kmh W 13.8 mph22.2 kmh 29.43 in996.6 mb - 0.00 in0.0 mm 0.13 in3.3 mm
09:10 AM 46.4°F8.0°C 42.4°F5.8°C 86% 9.2 mph WSW14.8 kmh WSW 13.8 mph22.2 kmh 29.43 in996.6 mb - 0.00 in0.0 mm 0.13 in3.3 mm
09:20 AM 46.3°F7.9°C 42.6°F5.9°C 87% 8.1 mph W13.0 kmh W 13.8 mph22.2 kmh 29.44 in997.0 mb - 0.00 in0.0 mm 0.13 in3.3 mm
09:30 AM 46.4°F8.0°C 42.4°F5.8°C 86% 6.9 mph W11.1 kmh W 16.1 mph25.9 kmh 29.44 in997.0 mb - 0.00 in0.0 mm 0.13 in3.3 mm
09:40 AM 46.4°F8.0°C 42.7°F5.9°C 87% 8.1 mph W13.0 kmh W 15.0 mph24.1 kmh 29.45 in997.3 mb - 0.00 in0.0 mm 0.13 in3.3 mm
09:50 AM 46.8°F8.2°C 43.1°F6.2°C 87% 6.9 mph W11.1 kmh W 13.8 mph22.2 kmh 29.45 in997.3 mb - 0.00 in0.0 mm 0.13 in3.3 mm
10:00 AM 47.2°F8.4°C 43.2°F6.2°C 86% 10.4 mph W16.7 kmh W 13.8 mph22.2 kmh 29.45 in997.3 mb - 0.00 in0.0 mm 0.13 in3.3 mm
10:10 AM 47.5°F8.6°C 43.2°F6.2°C 85% 9.2 mph W14.8 kmh W 16.1 mph25.9 kmh 29.45 in997.3 mb - 0.00 in0.0 mm 0.13 in3.3 mm
10:20 AM 47.8°F8.8°C 43.5°F6.4°C 85% 6.9 mph W11.1 kmh W 13.8 mph22.2 kmh 29.45 in997.3 mb - 0.00 in0.0 mm 0.13 in3.3 mm
10:30 AM 48.0°F8.9°C 43.1°F6.2°C 83% 9.2 mph W14.8 kmh W 16.1 mph25.9 kmh 29.45 in997.3 mb - 0.00 in0.0 mm 0.13 in3.3 mm
10:40 AM 48.1°F8.9°C 42.5°F5.8°C 81% 10.4 mph W16.7 kmh W 19.6 mph31.5 kmh 29.45 in997.3 mb - 0.00 in0.0 mm 0.13 in3.3 mm
10:50 AM 47.9°F8.8°C 42.3°F5.7°C 81% 8.1 mph W13.0 kmh W 13.8 mph22.2 kmh 29.46 in997.6 mb - 0.00 in0.0 mm 0.13 in3.3 mm
11:00 AM 47.7°F8.7°C 42.5°F5.8°C 82% 6.9 mph W11.1 kmh W 12.7 mph20.4 kmh 29.46 in997.6 mb - 0.00 in0.0 mm 0.13 in3.3 mm
11:10 AM 47.7°F8.7°C 42.5°F5.8°C 82% 8.1 mph W13.0 kmh W 16.1 mph25.9 kmh 29.46 in997.6 mb - 0.00 in0.0 mm 0.13 in3.3 mm
11:20 AM 47.9°F8.8°C 43.0°F6.1°C 83% 10.4 mph WSW16.7 kmh WSW 16.1 mph25.9 kmh 29.46 in997.6 mb - 0.00 in0.0 mm 0.13 in3.3 mm
11:30 AM 48.2°F9.0°C 43.6°F6.4°C 84% 9.2 mph W14.8 kmh W 13.8 mph22.2 kmh 29.47 in998.0 mb - 0.00 in0.0 mm 0.13 in3.3 mm
11:40 AM 48.6°F9.2°C 43.7°F6.5°C 83% 10.4 mph W16.7 kmh W 16.1 mph25.9 kmh 29.47 in998.0 mb - 0.00 in0.0 mm 0.13 in3.3 mm
11:50 AM 49.0°F9.4°C 44.1°F6.7°C 83% 8.1 mph W13.0 kmh W 20.7 mph33.3 kmh 29.47 in998.0 mb - 0.00 in0.0 mm 0.13 in3.3 mm
12:00 PM 49.3°F9.6°C 43.7°F6.5°C 81% 11.5 mph WSW18.5 kmh WSW 16.1 mph25.9 kmh 29.47 in998.0 mb - 0.00 in0.0 mm 0.13 in3.3 mm
12:10 PM 49.5°F9.7°C 43.3°F6.3°C 79% 9.2 mph W14.8 kmh W 18.4 mph29.6 kmh 29.47 in998.0 mb - 0.00 in0.0 mm 0.13 in3.3 mm
12:20 PM 49.4°F9.7°C 42.5°F5.8°C 77% 10.4 mph W16.7 kmh W 16.1 mph25.9 kmh 29.47 in998.0 mb - 0.00 in0.0 mm 0.13 in3.3 mm
12:30 PM 49.4°F9.7°C 42.8°F6.0°C 78% 8.1 mph WSW13.0 kmh WSW 16.1 mph25.9 kmh 29.46 in997.6 mb - 0.00 in0.0 mm 0.13 in3.3 mm
12:40 PM 49.3°F9.6°C 42.4°F5.8°C 77% 9.2 mph WSW14.8 kmh WSW 18.4 mph29.6 kmh 29.46 in997.6 mb - 0.00 in0.0 mm 0.13 in3.3 mm
12:50 PM 49.2°F9.6°C 42.3°F5.7°C 77% 9.2 mph W14.8 kmh W 16.1 mph25.9 kmh 29.46 in997.6 mb - 0.00 in0.0 mm 0.13 in3.3 mm
01:00 PM 48.9°F9.4°C 41.7°F5.4°C 76% 9.2 mph W14.8 kmh W 15.0 mph24.1 kmh 29.46 in997.6 mb - 0.00 in0.0 mm 0.13 in3.3 mm
01:10 PM 48.7°F9.3°C 41.5°F5.3°C 76% 5.8 mph W9.3 kmh W 8.1 mph13.0 kmh 29.46 in997.6 mb - 0.00 in0.0 mm 0.13 in3.3 mm
01:20 PM 48.8°F9.3°C 41.6°F5.3°C 76% 10.4 mph WSW16.7 kmh WSW 23.0 mph37.0 kmh 29.47 in998.0 mb - 0.00 in0.0 mm 0.13 in3.3 mm
01:30 PM 49.0°F9.4°C 41.4°F5.2°C 75% 12.7 mph W20.4 kmh W 19.6 mph31.5 kmh 29.47 in998.0 mb - 0.00 in0.0 mm 0.13 in3.3 mm
01:40 PM 49.2°F9.6°C 42.0°F5.6°C 76% 10.4 mph W16.7 kmh W 16.1 mph25.9 kmh 29.47 in998.0 mb - 0.00 in0.0 mm 0.13 in3.3 mm
01:50 PM 49.4°F9.7°C 42.5°F5.8°C 77% 5.8 mph W9.3 kmh W 9.2 mph14.8 kmh 29.47 in998.0 mb - 0.00 in0.0 mm 0.13 in3.3 mm
02:00 PM 49.6°F9.8°C 42.4°F5.8°C 76% 8.1 mph W13.0 kmh W 13.8 mph22.2 kmh 29.46 in997.6 mb - 0.00 in0.0 mm 0.13 in3.3 mm
02:10 PM 49.7°F9.8°C 41.4°F5.2°C 73% 11.5 mph W18.5 kmh W 15.0 mph24.1 kmh 29.46 in997.6 mb - 0.00 in0.0 mm 0.13 in3.3 mm
02:20 PM 49.5°F9.7°C 40.8°F4.9°C 72% 9.2 mph W14.8 kmh W 13.8 mph22.2 kmh 29.46 in997.6 mb - 0.00 in0.0 mm 0.13 in3.3 mm
02:30 PM 49.6°F9.8°C 41.3°F5.2°C 73% 8.1 mph WSW13.0 kmh WSW 12.7 mph20.4 kmh 29.47 in998.0 mb - 0.00 in0.0 mm 0.13 in3.3 mm
02:40 PM 49.5°F9.7°C 40.5°F4.7°C 71% 10.4 mph W16.7 kmh W 16.1 mph25.9 kmh 29.48 in998.3 mb - 0.00 in0.0 mm 0.13 in3.3 mm
02:50 PM 48.9°F9.4°C 42.3°F5.7°C 78% 9.2 mph WNW14.8 kmh WNW 15.0 mph24.1 kmh 29.48 in998.3 mb - 0.00 in0.0 mm 0.13 in3.3 mm
03:00 PM 44.2°F6.8°C 42.3°F5.7°C 93% 10.4 mph W16.7 kmh W 13.8 mph22.2 kmh 29.49 in998.6 mb - 0.06 in1.5 mm 0.19 in4.8 mm
03:10 PM 43.2°F6.2°C 42.4°F5.8°C 97% 3.5 mph SW5.6 kmh SW 5.8 mph9.3 kmh 29.48 in998.3 mb - 0.02 in0.5 mm 0.20 in5.1 mm
03:20 PM 42.9°F6.1°C 42.4°F5.8°C 98% 6.9 mph W11.1 kmh W 9.2 mph14.8 kmh 29.49 in998.6 mb - 0.00 in0.0 mm 0.20 in5.1 mm
03:30 PM 43.1°F6.2°C 42.8°F6.0°C 99% 4.6 mph W7.4 kmh W 9.2 mph14.8 kmh 29.49 in998.6 mb - 0.00 in0.0 mm 0.20 in5.1 mm
03:40 PM 42.9°F6.1°C 42.1°F5.6°C 97% 4.6 mph WSW7.4 kmh WSW 9.2 mph14.8 kmh 29.49 in998.6 mb - 0.00 in0.0 mm 0.20 in5.1 mm
03:50 PM 42.7°F5.9°C 41.4°F5.2°C 95% 5.8 mph WSW9.3 kmh WSW 9.2 mph14.8 kmh 29.49 in998.6 mb - 0.00 in0.0 mm 0.20 in5.1 mm
04:00 PM 42.7°F5.9°C 41.4°F5.2°C 95% 4.6 mph WSW7.4 kmh WSW 5.8 mph9.3 kmh 29.49 in998.6 mb - 0.00 in0.0 mm 0.20 in5.1 mm
04:10 PM 42.9°F6.1°C 41.6°F5.3°C 95% 3.5 mph WNW5.6 kmh WNW 5.8 mph9.3 kmh 29.49 in998.6 mb - 0.00 in0.0 mm 0.20 in5.1 mm
04:20 PM 43.0°F6.1°C 41.7°F5.4°C 95% 5.8 mph W9.3 kmh W 8.1 mph13.0 kmh 29.49 in998.6 mb - 0.00 in0.0 mm 0.20 in5.1 mm
04:30 PM 42.9°F6.1°C 41.1°F5.1°C 93% 5.8 mph W9.3 kmh W 8.1 mph13.0 kmh 29.49 in998.6 mb - 0.00 in0.0 mm 0.20 in5.1 mm
04:40 PM 43.1°F6.2°C 40.9°F4.9°C 92% 6.9 mph W11.1 kmh W 9.2 mph14.8 kmh 29.49 in998.6 mb - 0.00 in0.0 mm 0.20 in5.1 mm
04:50 PM 44.0°F6.7°C 41.8°F5.4°C 92% 3.5 mph WNW5.6 kmh WNW 11.5 mph18.5 kmh 29.49 in998.6 mb - 0.00 in0.0 mm 0.20 in5.1 mm
05:00 PM 44.1°F6.7°C 42.2°F5.7°C 93% 8.1 mph W13.0 kmh W 12.7 mph20.4 kmh 29.50 in999.0 mb - 0.00 in0.0 mm 0.20 in5.1 mm
05:10 PM 44.5°F6.9°C 42.6°F5.9°C 93% 5.8 mph W9.3 kmh W 8.1 mph13.0 kmh 29.50 in999.0 mb - 0.00 in0.0 mm 0.20 in5.1 mm
05:20 PM 44.8°F7.1°C 42.9°F6.1°C 93% 8.1 mph W13.0 kmh W 16.1 mph25.9 kmh 29.50 in999.0 mb - 0.00 in0.0 mm 0.20 in5.1 mm
05:30 PM 45.1°F7.3°C 42.3°F5.7°C 90% 6.9 mph WSW11.1 kmh WSW 13.8 mph22.2 kmh 29.50 in999.0 mb - 0.00 in0.0 mm 0.20 in5.1 mm
05:40 PM 45.0°F7.2°C 42.3°F5.7°C 90% 6.9 mph WSW11.1 kmh WSW 11.5 mph18.5 kmh 29.50 in999.0 mb - 0.00 in0.0 mm 0.20 in5.1 mm
05:50 PM 45.1°F7.3°C 42.1°F5.6°C 89% 6.9 mph W11.1 kmh W 11.5 mph18.5 kmh 29.50 in999.0 mb - 0.00 in0.0 mm 0.20 in5.1 mm
06:00 PM 45.2°F7.3°C 42.1°F5.6°C 89% 6.9 mph W11.1 kmh W 15.0 mph24.1 kmh 29.50 in999.0 mb - 0.00 in0.0 mm 0.20 in5.1 mm
06:10 PM 45.3°F7.4°C 42.0°F5.6°C 88% 6.9 mph WSW11.1 kmh WSW 9.2 mph14.8 kmh 29.50 in999.0 mb - 0.00 in0.0 mm 0.20 in5.1 mm
06:20 PM 45.3°F7.4°C 42.2°F5.7°C 89% 6.9 mph WSW11.1 kmh WSW 16.1 mph25.9 kmh 29.50 in999.0 mb - 0.00 in0.0 mm 0.20 in5.1 mm
06:30 PM 45.1°F7.3°C 41.5°F5.3°C 87% 9.2 mph WSW14.8 kmh WSW 19.6 mph31.5 kmh 29.50 in999.0 mb - 0.00 in0.0 mm 0.20 in5.1 mm
06:40 PM 45.1°F7.3°C 41.5°F5.3°C 87% 9.2 mph W14.8 kmh W 13.8 mph22.2 kmh 29.50 in999.0 mb - 0.00 in0.0 mm 0.20 in5.1 mm
06:50 PM 45.0°F7.2°C 41.7°F5.4°C 88% 9.2 mph WSW14.8 kmh WSW 16.1 mph25.9 kmh 29.51 in999.3 mb - 0.00 in0.0 mm 0.20 in5.1 mm
07:00 PM 44.9°F7.2°C 41.6°F5.3°C 88% 8.1 mph W13.0 kmh W 13.8 mph22.2 kmh 29.51 in999.3 mb - 0.00 in0.0 mm 0.20 in5.1 mm
07:10 PM 44.8°F7.1°C 41.2°F5.1°C 87% 6.9 mph W11.1 kmh W 12.7 mph20.4 kmh 29.52 in999.7 mb - 0.00 in0.0 mm 0.20 in5.1 mm
07:20 PM 44.6°F7.0°C 41.3°F5.2°C 88% 6.9 mph W11.1 kmh W 11.5 mph18.5 kmh 29.52 in999.7 mb - 0.00 in0.0 mm 0.20 in5.1 mm
07:30 PM 44.5°F6.9°C 41.5°F5.3°C 89% 6.9 mph WSW11.1 kmh WSW 9.2 mph14.8 kmh 29.52 in999.7 mb - 0.00 in0.0 mm 0.20 in5.1 mm
07:40 PM 44.4°F6.9°C 41.4°F5.2°C 89% 6.9 mph WSW11.1 kmh WSW 12.7 mph20.4 kmh 29.52 in999.7 mb - 0.00 in0.0 mm 0.20 in5.1 mm
07:50 PM 44.6°F7.0°C 41.5°F5.3°C 89% 9.2 mph WSW14.8 kmh WSW 12.7 mph20.4 kmh 29.52 in999.7 mb - 0.00 in0.0 mm 0.20 in5.1 mm
08:00 PM 44.9°F7.2°C 41.3°F5.2°C 87% 10.4 mph W16.7 kmh W 19.6 mph31.5 kmh 29.52 in999.7 mb - 0.00 in0.0 mm 0.20 in5.1 mm
08:10 PM 45.2°F7.3°C 41.3°F5.2°C 86% 8.1 mph 13.0 kmh 13.8 mph22.2 kmh 29.51 in999.3 mb - 0.00 in0.0 mm 0.20 in5.1 mm
08:20 PM 45.4°F7.4°C 41.8°F5.4°C 87% 8.1 mph W13.0 kmh W 12.7 mph20.4 kmh 29.51 in999.3 mb - 0.00 in0.0 mm 0.20 in5.1 mm
08:30 PM 45.4°F7.4°C 42.1°F5.6°C 88% 6.9 mph W11.1 kmh W 8.1 mph13.0 kmh 29.52 in999.7 mb - 0.00 in0.0 mm 0.20 in5.1 mm
08:40 PM 45.5°F7.5°C 41.6°F5.3°C 86% 5.8 mph W9.3 kmh W 11.5 mph18.5 kmh 29.52 in999.7 mb - 0.00 in0.0 mm 0.20 in5.1 mm
08:50 PM 45.3°F7.4°C 41.7°F5.4°C 87% 6.9 mph W11.1 kmh W 8.1 mph13.0 kmh 29.52 in999.7 mb - 0.00 in0.0 mm 0.20 in5.1 mm
09:00 PM 45.1°F7.3°C 41.7°F5.4°C 88% 6.9 mph W11.1 kmh W 16.1 mph25.9 kmh 29.52 in999.7 mb - 0.00 in0.0 mm 0.20 in5.1 mm
09:10 PM 44.9°F7.2°C 41.5°F5.3°C 88% 3.5 mph WNW5.6 kmh WNW 5.8 mph9.3 kmh 29.53 in1000.0 mb - 0.00 in0.0 mm 0.20 in5.1 mm
09:20 PM 44.6°F7.0°C 41.3°F5.2°C 88% 6.9 mph W11.1 kmh W 11.5 mph18.5 kmh 29.53 in1000.0 mb - 0.00 in0.0 mm 0.20 in5.1 mm
09:30 PM 44.4°F6.9°C 40.8°F4.9°C 87% 6.9 mph W11.1 kmh W 15.0 mph24.1 kmh 29.53 in1000.0 mb - 0.00 in0.0 mm 0.20 in5.1 mm
09:40 PM 44.7°F7.1°C 40.2°F4.6°C 84% 9.2 mph W14.8 kmh W 13.8 mph22.2 kmh 29.53 in1000.0 mb - 0.00 in0.0 mm 0.20 in5.1 mm
09:50 PM 44.7°F7.1°C 39.5°F4.2°C 82% 9.2 mph W14.8 kmh W 16.1 mph25.9 kmh 29.53 in1000.0 mb - 0.00 in0.0 mm 0.20 in5.1 mm
10:00 PM 44.4°F6.9°C 39.6°F4.2°C 83% 5.8 mph W9.3 kmh W 12.7 mph20.4 kmh 29.53 in1000.0 mb - 0.00 in0.0 mm 0.20 in5.1 mm
10:10 PM 44.7°F7.1°C 39.5°F4.2°C 82% 9.2 mph WNW14.8 kmh WNW 15.0 mph24.1 kmh 29.53 in1000.0 mb - 0.00 in0.0 mm 0.20 in5.1 mm
10:20 PM 44.9°F7.2°C 39.4°F4.1°C 81% 11.5 mph W18.5 kmh W 20.7 mph33.3 kmh 29.53 in1000.0 mb - 0.00 in0.0 mm 0.20 in5.1 mm
10:30 PM 44.9°F7.2°C 39.4°F4.1°C 81% 8.1 mph W13.0 kmh W 11.5 mph18.5 kmh 29.54 in1000.3 mb - 0.00 in0.0 mm 0.20 in5.1 mm
10:40 PM 44.7°F7.1°C 39.3°F4.1°C 81% 6.9 mph W11.1 kmh W 13.8 mph22.2 kmh 29.54 in1000.3 mb - 0.00 in0.0 mm 0.20 in5.1 mm
10:50 PM 44.6°F7.0°C 38.8°F3.8°C 80% 8.1 mph WNW13.0 kmh WNW 16.1 mph25.9 kmh 29.54 in1000.3 mb - 0.00 in0.0 mm 0.20 in5.1 mm
11:00 PM 44.4°F6.9°C 38.6°F3.7°C 80% 8.1 mph W13.0 kmh W 13.8 mph22.2 kmh 29.55 in1000.7 mb - 0.00 in0.0 mm 0.20 in5.1 mm
11:10 PM 44.0°F6.7°C 38.2°F3.4°C 80% 8.1 mph W13.0 kmh W 11.5 mph18.5 kmh 29.55 in1000.7 mb - 0.00 in0.0 mm 0.20 in5.1 mm
11:20 PM 43.9°F6.6°C 37.8°F3.2°C 79% 6.9 mph WSW11.1 kmh WSW 11.5 mph18.5 kmh 29.55 in1000.7 mb - 0.00 in0.0 mm 0.20 in5.1 mm
11:30 PM 43.7°F6.5°C 37.9°F3.3°C 80% 5.8 mph WNW9.3 kmh WNW 9.2 mph14.8 kmh 29.55 in1000.7 mb - 0.00 in0.0 mm 0.20 in5.1 mm
11:40 PM 43.5°F6.4°C 38.1°F3.4°C 81% 5.8 mph W9.3 kmh W 11.5 mph18.5 kmh 29.55 in1000.7 mb - 0.00 in0.0 mm 0.20 in5.1 mm
11:50 PM 43.5°F6.4°C 38.4°F3.6°C 82% 6.9 mph WSW11.1 kmh WSW 12.7 mph20.4 kmh 29.55 in1000.7 mb - 0.00 in0.0 mm 0.20 in5.1 mm